Главная страница
METAR-TAF:

METAR-TAF

Аэропорты :

Махшехр, Иран

широта: 30-33-23N, долгота: 049-09-07E, высота над уровнем моря: 2 м

Текущие метеонаблюдения

Эта сводка был подготовлена 29 минут назад, в 14:00 UTC
Ветер 10 Узел от западно-северо-западный
Температура 18°C
Влажность 32%
Давление 1017 hPa
Видимость 10 км и более
небольшая облачность на высоте 4000 фута

METAR: OIAM 081400Z 30010KT 9999 FEW040 18/01 Q1017

Время: 17:59 (14:29 UTC)


TAF: отсутствует

Метеонаблюдения и прогнозы для более 4000 аэропортов (сводки METAR и TAF).

Имеющиеся станции представлены на карте желтыми и красными точками.

Чтобы увидеть название станции, наведите на нее мышь.

Затем щелкните, чтобы увидеть метеонаблюдения и метеопрогнозы.

Управление картой: чтобы увеличить масштаб, щелкните зеленые кнопки с черным крестиком; чтобы уменьшить масштаб, щелкните зеленую кнопку с тире; для просмотра соседних карт щелкайте зеленые стрелки.


METAR-TAF: